Time;durP1;ratioP1;P1;durP2;ratioP2;P2;SDS_P1;SDS_P2;PMS_P1;PMS_P2;Temp;Humidity;BMP_temperature;BMP_pressure;BME280_temperature;BME280_humidity;BME280_pressure;Samples;Min_cycle;Max_cycle;Signal;HPM_P1;HPM_P2
2022/06/18 00:02:25;;;;;;;1.27;1.00;;;21.30;90.10;;;;;;4969488;28;20241;-74
2022/06/18 00:04:54;;;;;;;4.10;1.52;;;21.30;90.20;;;;;;4968577;28;21011;-74
2022/06/18 00:07:23;;;;;;;2.47;0.90;;;21.20;90.40;;;;;;4970227;28;20256;-74
2022/06/18 00:10:01;;;;;;;1.70;1.23;;;21.30;90.40;;;;;;4968762;28;20298;-75
2022/06/18 00:15:18;;;;;;;2.75;1.13;;;21.30;90.30;;;;;;4965877;28;20782;-74
2022/06/18 00:17:47;;;;;;;2.55;1.05;;;21.30;90.10;;;;;;4970811;28;20543;-74
2022/06/18 00:20:18;;;;;;;1.60;1.35;;;21.30;90.30;;;;;;4969999;28;20624;-74
2022/06/18 00:22:49;;;;;;;1.35;1.23;;;21.30;89.80;;;;;;4969773;28;20214;-71
2022/06/18 00:25:19;;;;;;;2.45;1.30;;;21.20;89.90;;;;;;4968874;28;20612;-70
2022/06/18 00:27:48;;;;;;;3.33;1.50;;;21.10;90.30;;;;;;4968561;28;20202;-73
2022/06/18 00:30:21;;;;;;;1.55;1.10;;;21.10;90.40;;;;;;4969317;28;20266;-74
2022/06/18 00:32:49;;;;;;;1.70;1.20;;;21.10;91.00;;;;;;4969932;28;20823;-74
2022/06/18 00:35:19;;;;;;;2.25;1.20;;;21.20;90.40;;;;;;4969996;28;20230;-73
2022/06/18 00:37:51;;;;;;;1.40;1.30;;;21.20;90.70;;;;;;4969147;28;20734;-74
2022/06/18 00:40:25;;;;;;;2.78;1.30;;;21.20;90.30;;;;;;4967977;28;20695;-74
2022/06/18 00:42:54;;;;;;;1.50;1.30;;;21.10;91.10;;;;;;4972839;28;20794;-74
2022/06/18 00:45:26;;;;;;;1.67;1.10;;;21.10;90.30;;;;;;4971009;28;20282;-73
2022/06/18 00:48:06;;;;;;;1.60;1.50;;;21.10;90.50;;;;;;4968220;28;20206;-71
2022/06/18 00:50:41;;;;;;;3.58;1.48;;;21.10;90.50;;;;;;4968240;28;20202;-74
2022/06/18 00:53:13;;;;;;;5.32;2.10;;;21.30;90.60;;;;;;4970974;28;20225;-74
2022/06/18 00:55:47;;;;;;;1.80;1.20;;;21.20;90.40;;;;;;4971288;28;20289;-74
2022/06/18 00:58:20;;;;;;;1.85;1.00;;;21.10;90.70;;;;;;4973209;28;20280;-74
2022/06/18 01:00:50;;;;;;;1.50;1.40;;;21.00;90.70;;;;;;4973080;28;20266;-73
2022/06/18 01:03:27;;;;;;;1.20;1.10;;;21.00;90.60;;;;;;4970434;28;20315;-73
2022/06/18 01:05:58;;;;;;;3.15;1.40;;;20.90;90.80;;;;;;4973370;28;20210;-71
2022/06/18 01:08:30;;;;;;;2.50;1.58;;;21.10;91.00;;;;;;4971064;28;20210;-73
2022/06/18 01:11:01;;;;;;;2.90;1.70;;;20.90;90.90;;;;;;4974359;28;20281;-71
2022/06/18 01:13:32;;;;;;;1.77;1.40;;;20.80;90.90;;;;;;4970292;28;20242;-72
2022/06/18 01:16:02;;;;;;;1.20;1.10;;;20.90;91.20;;;;;;4973679;28;20331;-74
2022/06/18 01:18:31;;;;;;;3.13;1.35;;;21.10;91.20;;;;;;4974809;28;20746;-72
2022/06/18 01:21:06;;;;;;;2.58;1.77;;;21.10;90.80;;;;;;4968202;28;20215;-73
2022/06/18 01:23:39;;;;;;;2.00;1.40;;;21.00;91.20;;;;;;4974301;28;20300;-73
2022/06/18 01:26:11;;;;;;;2.50;1.17;;;21.00;91.10;;;;;;4974746;28;20217;-73
2022/06/18 01:28:38;;;;;;;1.42;1.20;;;21.00;91.40;;;;;;4973848;28;20293;-74
2022/06/18 01:31:07;;;;;;;1.63;1.40;;;21.00;91.50;;;;;;4972586;28;20759;-73
2022/06/18 01:33:37;;;;;;;1.63;1.40;;;20.90;91.40;;;;;;4972075;28;20198;-74
2022/06/18 01:36:09;;;;;;;1.50;1.40;;;20.80;91.30;;;;;;4968682;28;20301;-73
2022/06/18 01:38:44;;;;;;;2.90;1.52;;;20.70;91.80;;;;;;4968693;28;20787;-73
2022/06/18 01:44:08;;;;;;;3.28;1.83;;;20.80;91.80;;;;;;4974255;28;20199;-72
2022/06/18 01:46:38;;;;;;;1.50;1.40;;;20.70;91.90;;;;;;4973251;28;20610;-73
2022/06/18 01:49:10;;;;;;;2.85;1.10;;;20.70;91.80;;;;;;4972638;28;20207;-74
2022/06/18 01:51:42;;;;;;;2.72;1.58;;;20.70;92.10;;;;;;4972227;28;20305;-73
2022/06/18 01:54:18;;;;;;;3.47;1.67;;;20.70;92.50;;;;;;4969804;28;20703;-71
2022/06/18 01:56:52;;;;;;;1.95;1.67;;;20.60;92.60;;;;;;4972998;28;20238;-73
2022/06/18 01:59:23;;;;;;;1.50;1.40;;;20.50;93.10;;;;;;4972567;28;20237;-73
2022/06/18 02:01:52;;;;;;;2.80;1.60;;;20.50;93.30;;;;;;4970474;28;21505;-73
2022/06/18 02:04:22;;;;;;;2.17;1.70;;;20.60;93.00;;;;;;4971832;28;20285;-73
2022/06/18 02:06:51;;;;;;;4.10;1.92;;;20.60;92.90;;;;;;4971998;28;20210;-72
2022/06/18 02:09:34;;;;;;;2.05;1.90;;;20.70;92.80;;;;;;4970586;28;20238;-72
2022/06/18 02:12:08;;;;;;;5.60;1.90;;;20.60;92.70;;;;;;4975612;28;20225;-73
2022/06/18 02:14:38;;;;;;;2.63;2.00;;;20.60;93.00;;;;;;4973167;28;20788;-75
2022/06/18 02:17:09;;;;;;;2.17;1.98;;;20.50;93.10;;;;;;4972415;28;20790;-74
2022/06/18 02:19:39;;;;;;;2.97;1.80;;;20.60;93.10;;;;;;4972350;28;20210;-73
2022/06/18 02:22:09;;;;;;;1.85;1.67;;;20.60;92.90;;;;;;4968250;28;20265;-74
2022/06/18 02:24:37;;;;;;;9.07;2.03;;;20.50;93.10;;;;;;4967791;28;20611;-74
2022/06/18 02:27:06;;;;;;;2.97;1.45;;;20.50;93.10;;;;;;4965783;28;20230;-75
2022/06/18 02:29:35;;;;;;;2.00;1.75;;;20.50;93.30;;;;;;4971664;28;20203;-73
2022/06/18 02:32:08;;;;;;;2.33;1.42;;;20.50;93.40;;;;;;4967328;28;20719;-71
2022/06/18 02:34:36;;;;;;;3.90;1.75;;;20.40;93.50;;;;;;4971622;28;20253;-74
2022/06/18 02:37:14;;;;;;;1.63;1.40;;;20.40;93.70;;;;;;4967476;28;20242;-74
2022/06/18 02:39:56;;;;;;;2.50;1.90;;;20.50;93.80;;;;;;4970652;28;20230;-75
2022/06/18 02:42:28;;;;;;;1.83;1.73;;;20.40;93.90;;;;;;4975912;28;20222;-72
2022/06/18 02:44:57;;;;;;;2.53;1.90;;;20.40;94.00;;;;;;4972294;28;20234;-72
2022/06/18 02:47:26;;;;;;;3.05;1.95;;;20.20;94.20;;;;;;4971047;28;20211;-72
2022/06/18 02:49:57;;;;;;;2.40;2.20;;;20.20;94.30;;;;;;4970547;28;20285;-70
2022/06/18 02:52:29;;;;;;;2.53;2.03;;;20.30;94.30;;;;;;4969925;28;20726;-72
2022/06/18 02:55:02;;;;;;;1.77;1.67;;;20.30;94.10;;;;;;4970730;28;20222;-71
2022/06/18 02:57:31;;;;;;;3.83;1.63;;;20.30;94.10;;;;;;4968249;28;20223;-72
2022/06/18 02:59:59;;;;;;;1.50;1.40;;;20.30;94.00;;;;;;4970169;28;20272;-72
2022/06/18 03:02:27;;;;;;;2.17;1.75;;;20.30;94.00;;;;;;4970734;28;20234;-72
2022/06/18 03:04:55;;;;;;;2.25;1.80;;;20.20;94.30;;;;;;4970206;28;20253;-72
2022/06/18 03:07:23;;;;;;;1.52;1.42;;;20.10;94.40;;;;;;4969749;28;20664;-72
2022/06/18 03:12:38;;;;;;;1.85;1.75;;;20.30;94.00;;;;;;4971820;28;20234;-73
2022/06/18 03:15:06;;;;;;;1.55;1.30;;;20.30;93.70;;;;;;4970298;28;20225;-73
2022/06/18 03:17:34;;;;;;;2.70;1.30;;;20.20;93.80;;;;;;4970158;28;20261;-74
2022/06/18 03:20:08;;;;;;;3.05;1.70;;;20.40;93.70;;;;;;4969986;28;20669;-73
2022/06/18 03:22:36;;;;;;;2.20;1.52;;;20.40;93.80;;;;;;4970224;28;20265;-73
2022/06/18 03:25:04;;;;;;;4.45;1.52;;;20.40;93.80;;;;;;4970734;28;20241;-73
2022/06/18 03:27:32;;;;;;;2.00;1.80;;;20.30;93.80;;;;;;4970566;28;20194;-73
2022/06/18 03:30:04;;;;;;;3.67;1.65;;;20.40;93.90;;;;;;4970263;28;20203;-74
2022/06/18 03:32:32;;;;;;;1.70;1.60;;;20.40;94.00;;;;;;4968252;28;20277;-74
2022/06/18 03:35:00;;;;;;;1.92;1.83;;;20.50;94.00;;;;;;4969569;28;20233;-73
2022/06/18 03:37:28;;;;;;;3.17;1.25;;;20.50;93.90;;;;;;4974697;28;20633;-74
2022/06/18 03:40:16;;;;;;;2.50;1.67;;;20.60;94.10;;;;;;4969857;28;20732;-74
2022/06/18 03:42:44;;;;;;;3.53;1.88;;;20.50;94.00;;;;;;4970793;28;20314;-73
2022/06/18 03:45:13;;;;;;;5.10;1.60;;;20.60;93.90;;;;;;4969431;28;20261;-73
2022/06/18 03:47:41;;;;;;;2.15;1.95;;;20.60;94.00;;;;;;4968779;28;20278;-73
2022/06/18 03:50:14;;;;;;;2.45;1.40;;;20.50;94.00;;;;;;4969909;28;20211;-74
2022/06/18 03:52:42;;;;;;;3.63;1.38;;;20.60;93.90;;;;;;4966261;28;20241;-73
2022/06/18 03:55:12;;;;;;;2.08;1.88;;;20.70;93.70;;;;;;4967580;28;20222;-73
2022/06/18 03:57:40;;;;;;;3.47;1.65;;;20.60;93.80;;;;;;4968491;28;20222;-73
2022/06/18 04:00:16;;;;;;;3.10;1.40;;;20.70;93.90;;;;;;4969217;28;20269;-73
2022/06/18 04:02:44;;;;;;;1.63;1.52;;;20.60;93.80;;;;;;4967934;28;20685;-75
2022/06/18 04:05:11;;;;;;;3.95;1.60;;;20.50;94.00;;;;;;4969084;28;20748;-75
2022/06/18 04:07:41;;;;;;;1.92;1.38;;;20.60;94.00;;;;;;4966171;28;20206;-71
2022/06/18 04:10:11;;;;;;;1.70;1.60;;;20.70;93.90;;;;;;4966575;28;20198;-74
2022/06/18 04:12:39;;;;;;;2.90;1.15;;;20.70;94.20;;;;;;4967499;28;20273;-73
2022/06/18 04:15:07;;;;;;;1.65;1.23;;;20.70;94.10;;;;;;4974158;28;20222;-74
2022/06/18 04:17:37;;;;;;;1.50;1.23;;;20.70;94.20;;;;;;4967590;28;20273;-75
2022/06/18 04:20:06;;;;;;;1.95;1.42;;;20.70;94.30;;;;;;4969955;28;20633;-75
2022/06/18 04:22:34;;;;;;;1.65;1.55;;;20.70;94.80;;;;;;4967710;28;20234;-74
2022/06/18 04:25:02;;;;;;;1.65;1.38;;;20.60;94.70;;;;;;4973321;28;20203;-75
2022/06/18 04:27:30;;;;;;;2.10;1.50;;;20.70;94.80;;;;;;4973100;28;20718;-75
2022/06/18 04:29:58;;;;;;;2.53;1.70;;;20.70;95.00;;;;;;4973870;28;20206;-75
2022/06/18 04:32:25;;;;;;;1.92;1.40;;;20.60;94.90;;;;;;4973438;28;21994;-75
2022/06/18 04:34:55;;;;;;;1.33;1.20;;;20.70;95.00;;;;;;4973693;28;20234;-74
2022/06/18 04:37:22;;;;;;;2.17;1.55;;;20.70;94.60;;;;;;4973631;28;20302;-74
2022/06/18 04:39:50;;;;;;;1.30;1.20;;;20.80;94.50;;;;;;4972253;28;20206;-74
2022/06/18 04:42:18;;;;;;;2.17;1.30;;;20.90;94.80;;;;;;4973862;28;20285;-75
2022/06/18 04:44:46;;;;;;;1.95;1.40;;;20.90;94.70;;;;;;4976235;28;20210;-74
2022/06/18 04:47:14;;;;;;;3.00;1.10;;;21.00;94.60;;;;;;4972676;28;20241;-71
2022/06/18 04:49:43;;;;;;;1.88;1.40;;;21.10;94.40;;;;;;4974130;28;20253;-75
2022/06/18 04:52:12;;;;;;;4.70;1.77;;;21.00;95.70;;;;;;4971632;28;20234;-73
2022/06/18 04:54:40;;;;;;;2.03;1.88;;;21.00;96.10;;;;;;4972741;28;20590;-75
2022/06/18 04:57:08;;;;;;;1.70;1.60;;;20.80;97.10;;;;;;4973614;28;20309;-73
2022/06/18 04:59:38;;;;;;;2.30;1.27;;;20.90;96.60;;;;;;4967549;28;20226;-73
2022/06/18 05:02:14;;;;;;;3.55;1.77;;;21.00;96.40;;;;;;4967173;28;20246;-73
2022/06/18 05:04:42;;;;;;;2.22;1.67;;;21.00;96.70;;;;;;4967027;28;20308;-75
2022/06/18 05:07:11;;;;;;;1.60;1.50;;;21.10;96.90;;;;;;4965681;28;20202;-73
2022/06/18 05:09:39;;;;;;;7.00;1.60;;;21.20;97.80;;;;;;4969563;28;20229;-75
2022/06/18 05:12:08;;;;;;;4.60;1.70;;;21.40;96.30;;;;;;4969094;28;20234;-75
2022/06/18 05:14:43;;;;;;;3.55;1.60;;;21.30;96.70;;;;;;4973816;28;20275;-76
2022/06/18 05:17:16;;;;;;;2.10;1.33;;;21.30;98.00;;;;;;4968860;28;20301;-74
2022/06/18 05:19:45;;;;;;;1.85;1.40;;;21.20;98.50;;;;;;4969217;28;20233;-74
2022/06/18 05:22:15;;;;;;;3.45;1.90;;;21.20;98.00;;;;;;4966724;28;20285;-75
2022/06/18 05:24:43;;;;;;;4.90;1.73;;;21.30;98.60;;;;;;4972761;28;20292;-77
2022/06/18 05:27:20;;;;;;;2.05;1.60;;;21.50;97.50;;;;;;4968240;28;20751;-75
2022/06/18 05:29:47;;;;;;;1.75;1.65;;;21.60;97.30;;;;;;4970259;28;20675;-75
2022/06/18 05:32:15;;;;;;;5.75;1.80;;;21.70;97.60;;;;;;4969287;28;20829;-75
2022/06/18 05:34:43;;;;;;;4.93;1.80;;;21.60;97.10;;;;;;4969826;28;20210;-75
2022/06/18 05:37:15;;;;;;;2.42;1.88;;;21.60;98.00;;;;;;4966457;28;20284;-76
2022/06/18 05:39:44;;;;;;;1.70;1.60;;;21.60;98.20;;;;;;4971725;28;20292;-74
2022/06/18 05:42:16;;;;;;;4.15;1.60;;;21.50;99.70;;;;;;4969984;28;20214;-77
2022/06/18 05:44:44;;;;;;;4.05;1.80;;;21.50;99.90;;;;;;4967193;28;20650;-77
2022/06/18 05:47:15;;;;;;;2.75;1.60;;;21.50;99.90;;;;;;4968227;28;20939;-74
2022/06/18 05:49:43;;;;;;;3.00;1.92;;;21.50;99.40;;;;;;4972346;28;20205;-76
2022/06/18 05:52:11;;;;;;;6.15;2.08;;;21.80;99.90;;;;;;4969200;28;21374;-75
2022/06/18 05:54:41;;;;;;;1.67;1.58;;;21.80;99.90;;;;;;4968957;28;20620;-75
2022/06/18 05:57:10;;;;;;;2.20;1.90;;;21.80;99.90;;;;;;4968185;28;20217;-76
2022/06/18 05:59:37;;;;;;;2.95;1.30;;;21.90;99.90;;;;;;4967658;28;20241;-75
2022/06/18 06:02:07;;;;;;;2.60;1.50;;;22.00;99.90;;;;;;4966418;28;20260;-77
2022/06/18 06:04:34;;;;;;;3.70;1.92;;;22.10;99.90;;;;;;4972827;28;20245;-75
2022/06/18 06:07:03;;;;;;;1.73;1.63;;;22.20;99.00;;;;;;4969217;28;20350;-74
2022/06/18 06:12:17;;;;;;;3.28;1.77;;;22.40;99.90;;;;;;4964194;28;20234;-76
2022/06/18 06:14:45;;;;;;;2.45;1.85;;;22.50;99.70;;;;;;4970574;28;20233;-74
2022/06/18 06:17:16;;;;;;;2.95;2.13;;;22.70;99.00;;;;;;4967216;28;20218;-76
2022/06/18 06:19:44;;;;;;;1.48;1.33;;;22.90;99.30;;;;;;4969927;28;20850;-74
2022/06/18 06:22:12;;;;;;;1.48;1.38;;;23.10;94.90;;;;;;4967811;28;20357;-74
2022/06/18 06:24:43;;;;;;;1.40;1.30;;;23.30;94.40;;;;;;4967072;28;20202;-73
2022/06/18 06:27:11;;;;;;;1.90;1.33;;;23.50;93.20;;;;;;4966491;28;20202;-76
2022/06/18 06:29:41;;;;;;;2.67;1.20;;;23.60;93.30;;;;;;4969339;28;20248;-76
2022/06/18 06:32:09;;;;;;;2.92;1.52;;;23.70;92.90;;;;;;4964615;28;20254;-74
2022/06/18 06:34:44;;;;;;;3.38;1.25;;;23.80;93.50;;;;;;4968515;28;20201;-76
2022/06/18 06:37:12;;;;;;;4.10;1.20;;;24.00;93.20;;;;;;4964964;28;20330;-76
2022/06/18 06:39:40;;;;;;;1.60;1.50;;;24.10;92.70;;;;;;4970366;28;21172;-75
2022/06/18 06:42:10;;;;;;;4.30;1.38;;;24.30;92.30;;;;;;4970151;28;20237;-75
2022/06/18 06:44:59;;;;;;;1.52;1.42;;;24.30;91.50;;;;;;4969635;28;20221;-74
2022/06/18 06:47:27;;;;;;;2.10;1.45;;;24.20;91.10;;;;;;4964728;28;20210;-74
2022/06/18 06:49:55;;;;;;;5.03;1.38;;;24.10;91.90;;;;;;4969377;28;20865;-74
2022/06/18 06:52:23;;;;;;;1.90;1.65;;;24.10;92.60;;;;;;4968674;28;20221;-75
2022/06/18 06:57:21;;;;;;;2.35;1.65;;;24.10;92.80;;;;;;4969309;28;20279;-75
2022/06/18 06:57:41;;;;;;;5.30;1.60;;;24.20;93.40;;;;;;4967761;28;20337;-77
2022/06/18 07:00:18;;;;;;;3.00;1.60;;;24.30;92.80;;;;;;4970503;28;20705;-76
2022/06/18 07:02:46;;;;;;;2.05;1.88;;;24.40;92.10;;;;;;4968062;28;20269;-77
2022/06/18 07:05:15;;;;;;;1.67;1.58;;;24.30;92.20;;;;;;4969545;28;20206;-79
2022/06/18 07:07:43;;;;;;;4.68;2.00;;;24.40;92.10;;;;;;4966912;28;20202;-76
2022/06/18 07:10:11;;;;;;;2.35;1.65;;;24.40;92.40;;;;;;4968951;28;21162;-77
2022/06/18 07:12:39;;;;;;;7.00;1.70;;;24.40;92.60;;;;;;4967161;28;20262;-75
2022/06/18 07:15:09;;;;;;;6.97;1.90;;;24.50;92.20;;;;;;4970996;28;21173;-75
2022/06/18 07:17:38;;;;;;;4.00;1.80;;;24.50;92.70;;;;;;4968156;28;20316;-76
2022/06/18 07:20:08;;;;;;;5.28;2.08;;;24.60;93.00;;;;;;4968477;28;21040;-75
2022/06/18 07:22:36;;;;;;;3.15;2.30;;;24.70;93.00;;;;;;4968238;28;20229;-76
2022/06/18 07:25:06;;;;;;;3.85;2.15;;;25.00;93.70;;;;;;4970461;28;20762;-77
2022/06/18 07:27:34;;;;;;;3.90;2.00;;;25.30;92.80;;;;;;4966816;28;20868;-76
2022/06/18 07:30:03;;;;;;;2.45;1.95;;;25.40;92.90;;;;;;4969243;28;20198;-77
2022/06/18 07:32:30;;;;;;;2.03;1.83;;;25.60;91.80;;;;;;4968649;28;20321;-75
2022/06/18 07:35:00;;;;;;;3.85;1.70;;;25.80;92.10;;;;;;4968232;28;20642;-76
2022/06/18 07:37:29;;;;;;;2.78;2.20;;;25.90;91.40;;;;;;4965961;28;21748;-75
2022/06/18 07:39:57;;;;;;;3.38;2.08;;;26.10;92.40;;;;;;4967218;28;20333;-75
2022/06/18 07:42:25;;;;;;;2.78;2.58;;;26.20;90.90;;;;;;4966501;28;20730;-74
2022/06/18 07:44:53;;;;;;;2.45;1.65;;;26.30;90.90;;;;;;4968109;28;21242;-76
2022/06/18 07:47:21;;;;;;;2.22;2.03;;;26.30;91.30;;;;;;4964935;28;20293;-75
2022/06/18 07:49:49;;;;;;;3.00;1.90;;;26.40;91.80;;;;;;4967903;28;20253;-76
2022/06/18 07:52:18;;;;;;;3.22;1.95;;;26.50;90.90;;;;;;4966943;28;20309;-76
2022/06/18 07:54:46;;;;;;;5.80;2.03;;;26.40;90.80;;;;;;4967691;28;20242;-76
2022/06/18 07:57:19;;;;;;;1.60;1.30;;;26.60;91.60;;;;;;4965106;28;20718;-77
2022/06/18 07:59:48;;;;;;;3.25;1.55;;;26.80;90.10;;;;;;4967610;28;20973;-76
2022/06/18 08:02:18;;;;;;;5.35;1.88;;;27.10;90.60;;;;;;4967131;28;20380;-76
2022/06/18 08:04:46;;;;;;;4.00;1.88;;;27.10;88.20;;;;;;4968141;28;20214;-78
2022/06/18 08:07:14;;;;;;;2.58;2.10;;;27.40;88.40;;;;;;4966503;28;20201;-77
2022/06/18 08:09:43;;;;;;;2.60;1.70;;;27.70;88.80;;;;;;4968460;28;20572;-76
2022/06/18 08:12:11;;;;;;;2.95;2.13;;;27.80;87.00;;;;;;4968748;28;20998;-77
2022/06/18 08:14:39;;;;;;;2.10;1.85;;;27.80;87.20;;;;;;4967958;28;20217;-75
2022/06/18 08:17:07;;;;;;;2.30;1.40;;;27.90;87.40;;;;;;4966645;28;20287;-75
2022/06/18 08:19:35;;;;;;;6.68;1.75;;;27.90;85.70;;;;;;4968828;28;20416;-76
2022/06/18 08:22:04;;;;;;;3.22;2.10;;;28.10;85.50;;;;;;4967356;28;20233;-76
2022/06/18 08:24:32;;;;;;;1.92;1.67;;;28.10;86.10;;;;;;4968315;28;20309;-76
2022/06/18 08:27:02;;;;;;;3.00;2.22;;;28.20;85.60;;;;;;4947381;28;20320;-76
2022/06/18 08:29:32;;;;;;;5.10;1.75;;;28.50;86.60;;;;;;4969643;28;20959;-74
2022/06/18 08:32:00;;;;;;;3.22;1.70;;;28.70;84.40;;;;;;4968310;28;20270;-76
2022/06/18 08:34:28;;;;;;;4.20;1.48;;;28.70;83.70;;;;;;4967430;28;20198;-74
2022/06/18 08:36:59;;;;;;;4.00;1.60;;;28.90;84.20;;;;;;4966978;28;20273;-75
2022/06/18 08:39:27;;;;;;;6.50;1.85;;;29.00;84.10;;;;;;4969448;28;20280;-74
2022/06/18 08:42:09;;;;;;;1.80;1.65;;;29.00;83.00;;;;;;4967384;28;20226;-74
2022/06/18 08:44:53;;;;;;;2.80;1.88;;;29.00;83.30;;;;;;4968254;28;20291;-75
2022/06/18 08:47:36;;;;;;;1.83;1.73;;;29.20;83.00;;;;;;4964811;28;20232;-74
2022/06/18 08:50:22;;;;;;;4.40;1.70;;;29.30;84.10;;;;;;4969352;28;20234;-77
2022/06/18 08:53:08;;;;;;;4.47;2.22;;;29.40;82.40;;;;;;4965631;28;20246;-76
2022/06/18 08:55:42;;;;;;;4.35;2.00;;;29.70;82.60;;;;;;4968934;28;20269;-77
2022/06/18 08:58:19;;;;;;;1.70;1.60;;;29.90;82.30;;;;;;4966976;28;20248;-76
2022/06/18 09:00:54;;;;;;;3.65;1.50;;;30.20;81.10;;;;;;4967238;28;20958;-76
2022/06/18 09:03:33;;;;;;;3.65;1.85;;;30.40;80.60;;;;;;4966784;28;20323;-74
2022/06/18 09:06:12;;;;;;;2.15;1.80;;;30.60;81.80;;;;;;4968670;28;20237;-72
2022/06/18 09:08:52;;;;;;;2.08;1.67;;;30.80;81.90;;;;;;4965213;28;20664;-75
2022/06/18 09:11:29;;;;;;;1.70;1.60;;;30.80;79.20;;;;;;4969337;28;20221;-74
2022/06/18 09:14:07;;;;;;;3.92;1.90;;;30.80;80.00;;;;;;4971760;28;20205;-72
2022/06/18 09:16:38;;;;;;;3.10;1.30;;;30.70;79.40;;;;;;4973731;28;20289;-73
2022/06/18 09:19:11;;;;;;;2.30;1.50;;;30.90;78.70;;;;;;4968717;28;20613;-74
2022/06/18 09:21:43;;;;;;;6.57;1.80;;;31.10;78.40;;;;;;4970799;28;20679;-71
2022/06/18 09:24:17;;;;;;;3.10;1.43;;;31.30;77.80;;;;;;4974092;28;20740;-74
2022/06/18 09:26:49;;;;;;;1.50;1.40;;;31.50;78.60;;;;;;4973772;28;20852;-74
2022/06/18 09:29:23;;;;;;;2.77;1.90;;;31.80;80.00;;;;;;4973779;28;21107;-74
2022/06/18 09:31:58;;;;;;;2.27;1.50;;;32.20;77.60;;;;;;4974531;28;20731;-73
2022/06/18 09:34:29;;;;;;;2.47;2.23;;;32.20;76.40;;;;;;4972650;28;20699;-74
2022/06/18 09:37:00;;;;;;;1.70;1.27;;;32.50;75.30;;;;;;4969265;28;21113;-71
2022/06/18 09:39:37;;;;;;;5.47;1.87;;;32.80;75.80;;;;;;4972058;28;20661;-73
2022/06/18 09:42:09;;;;;;;3.90;2.20;;;32.90;75.20;;;;;;4973965;28;21287;-71
2022/06/18 09:44:44;;;;;;;4.20;1.80;;;32.90;75.40;;;;;;4974372;28;20700;-73
2022/06/18 09:47:18;;;;;;;2.50;2.10;;;33.10;74.20;;;;;;4974523;28;21015;-74
2022/06/18 09:49:47;;;;;;;1.60;1.50;;;33.40;74.50;;;;;;4974275;28;20676;-73
2022/06/18 09:52:20;;;;;;;4.70;1.70;;;33.50;75.70;;;;;;4973935;28;20661;-74
2022/06/18 09:54:53;;;;;;;3.30;1.60;;;33.70;76.30;;;;;;4974135;28;20617;-73
2022/06/18 09:57:24;;;;;;;2.40;1.80;;;33.90;75.10;;;;;;4974400;28;21038;-74
2022/06/18 10:00:01;;;;;;;2.40;1.43;;;34.00;74.90;;;;;;4974072;28;20641;-73
2022/06/18 10:02:32;;;;;;;7.90;2.27;;;33.90;74.20;;;;;;4973254;28;20696;-73
2022/06/18 10:07:51;;;;;;;3.97;2.40;;;34.40;76.60;;;;;;4970129;28;20617;-74
2022/06/18 10:10:22;;;;;;;6.50;2.30;;;34.40;73.10;;;;;;4974357;28;20688;-76
2022/06/18 10:12:53;;;;;;;2.70;2.13;;;34.50;72.10;;;;;;4973221;28;20673;-74
2022/06/18 10:15:25;;;;;;;2.40;2.20;;;34.40;73.80;;;;;;4973925;28;20609;-74
2022/06/18 10:18:11;;;;;;;4.50;1.80;;;34.80;73.70;;;;;;4974180;28;20668;-74
2022/06/18 10:20:45;;;;;;;3.40;1.93;;;34.80;73.10;;;;;;4973702;28;20679;-74
2022/06/18 10:23:29;;;;;;;5.80;2.10;;;34.50;72.80;;;;;;4966865;28;21194;-75
2022/06/18 10:26:08;;;;;;;2.93;1.73;;;34.80;71.90;;;;;;4973607;28;20655;-74
2022/06/18 10:28:45;;;;;;;3.13;2.27;;;35.00;72.90;;;;;;4973708;28;20618;-73
2022/06/18 10:31:21;;;;;;;3.30;2.03;;;35.20;72.20;;;;;;4973440;28;20655;-75
2022/06/18 10:33:56;;;;;;;2.87;1.90;;;35.60;71.40;;;;;;4972877;28;20602;-74
2022/06/18 10:36:31;;;;;;;3.80;1.97;;;36.00;72.60;;;;;;4973839;28;20664;-74
2022/06/18 10:39:14;;;;;;;3.33;2.00;;;36.10;70.40;;;;;;4973244;28;20717;-74
2022/06/18 10:41:54;;;;;;;2.50;1.90;;;36.00;70.50;;;;;;4973111;28;20745;-74
2022/06/18 10:44:38;;;;;;;2.73;2.13;;;36.30;69.90;;;;;;4974115;28;20638;-75
2022/06/18 10:47:11;;;;;;;2.67;1.60;;;36.30;70.30;;;;;;4973599;28;20614;-74
2022/06/18 10:49:39;;;;;;;4.23;2.00;;;36.60;69.10;;;;;;4972171;28;20632;-74
2022/06/18 10:52:18;;;;;;;3.33;2.13;;;36.70;70.30;;;;;;4972831;28;20658;-74
2022/06/18 10:54:47;;;;;;;3.47;2.40;;;36.60;69.10;;;;;;4973083;28;20616;-73
2022/06/18 10:57:23;;;;;;;5.47;2.80;;;36.40;68.60;;;;;;4973260;28;20621;-74
2022/06/18 10:59:52;;;;;;;5.20;2.00;;;36.30;68.90;;;;;;4972998;28;20609;-74
2022/06/18 11:02:28;;;;;;;3.40;2.17;;;36.10;69.60;;;;;;4972184;28;20666;-74
2022/06/18 11:04:59;;;;;;;5.77;2.20;;;36.50;69.30;;;;;;4973134;28;20621;-74
2022/06/18 11:07:29;;;;;;;4.43;2.17;;;36.40;68.50;;;;;;4972777;28;20614;-74
2022/06/18 11:10:00;;;;;;;4.40;2.00;;;36.60;69.20;;;;;;4972884;28;20692;-74
2022/06/18 11:12:31;;;;;;;1.97;1.87;;;36.70;67.90;;;;;;4972272;28;21093;-74
2022/06/18 11:15:00;;;;;;;3.23;1.60;;;36.60;68.30;;;;;;4972582;28;20621;-74
2022/06/18 11:17:31;;;;;;;5.60;2.23;;;36.50;67.90;;;;;;4972771;28;20617;-73
2022/06/18 11:20:16;;;;;;;2.43;2.17;;;36.40;68.30;;;;;;4966868;28;20728;-74
2022/06/18 11:22:50;;;;;;;4.10;2.00;;;36.60;67.50;;;;;;4971807;28;21295;-73
2022/06/18 11:25:26;;;;;;;3.63;2.20;;;37.00;69.20;;;;;;4972673;28;21147;-74
2022/06/18 11:27:58;;;;;;;5.20;2.20;;;37.10;67.20;;;;;;4972776;28;20622;-73
2022/06/18 11:30:30;;;;;;;2.77;2.23;;;37.20;68.00;;;;;;4972617;28;20613;-74
2022/06/18 11:33:01;;;;;;;3.57;2.63;;;37.00;66.30;;;;;;4971563;28;20673;-74
2022/06/18 11:35:33;;;;;;;5.70;2.73;;;37.00;66.00;;;;;;4972732;28;20672;-72
2022/06/18 11:38:04;;;;;;;6.03;2.23;;;36.60;65.90;;;;;;4972249;28;20617;-74
2022/06/18 11:40:33;;;;;;;6.13;2.10;;;36.80;67.70;;;;;;4972385;28;20661;-74
2022/06/18 11:43:28;;;;;;;10.43;2.73;;;37.10;67.20;;;;;;4971677;28;20688;-74
2022/06/18 11:46:01;;;;;;;8.17;2.50;;;37.40;65.60;;;;;;4972207;28;20622;-74
2022/06/18 11:48:40;;;;;;;3.67;2.13;;;37.00;65.60;;;;;;4972138;28;20630;-74
2022/06/18 11:51:14;;;;;;;6.60;2.60;;;36.90;65.80;;;;;;4972265;28;20598;-74
2022/06/18 11:53:49;;;;;;;4.67;2.40;;;36.90;67.30;;;;;;4971671;28;20696;-73
2022/06/18 11:56:23;;;;;;;4.13;2.30;;;36.70;65.80;;;;;;4972311;28;21023;-74
2022/06/18 11:58:56;;;;;;;5.57;2.57;;;36.50;66.10;;;;;;4972484;28;20605;-75
2022/06/18 12:01:32;;;;;;;6.13;2.33;;;36.60;64.80;;;;;;4971686;28;20673;-74
2022/06/18 12:04:06;;;;;;;7.43;2.90;;;36.80;64.80;;;;;;4962403;28;20720;-71
2022/06/18 12:06:47;;;;;;;6.30;2.93;;;37.30;64.20;;;;;;4963778;28;20628;-72
2022/06/18 12:09:25;;;;;;;4.57;3.13;;;37.50;63.30;;;;;;4971415;28;20716;-73
2022/06/18 12:12:08;;;;;;;6.90;3.20;;;37.90;63.80;;;;;;4971237;28;21337;-73
2022/06/18 12:14:42;;;;;;;8.50;2.87;;;37.90;62.70;;;;;;4967587;28;20760;-76
2022/06/18 12:17:16;;;;;;;11.73;2.40;;;37.60;63.40;;;;;;4971550;28;21034;-73
2022/06/18 12:19:50;;;;;;;6.07;2.43;;;37.40;62.40;;;;;;4970309;28;20687;-71
2022/06/18 12:22:24;;;;;;;3.37;2.53;;;37.60;63.90;;;;;;4969483;28;20715;-73
2022/06/18 12:25:00;;;;;;;7.70;2.77;;;37.70;62.70;;;;;;4969037;28;20624;-70
2022/06/18 12:27:30;;;;;;;7.33;2.80;;;37.80;61.60;;;;;;4972882;28;21338;-74
2022/06/18 12:30:09;;;;;;;6.93;2.73;;;37.80;62.10;;;;;;4971828;28;20724;-74
2022/06/18 12:32:48;;;;;;;5.00;2.87;;;37.80;62.50;;;;;;4970994;28;20774;-75
2022/06/18 12:35:29;;;;;;;4.60;2.00;;;38.00;62.10;;;;;;4967714;28;21233;-72
2022/06/18 12:38:07;;;;;;;10.60;3.37;;;38.00;62.10;;;;;;4972225;28;21220;-72
2022/06/18 12:40:44;;;;;;;3.93;2.40;;;37.80;61.60;;;;;;4970982;28;20748;-74
2022/06/18 12:43:17;;;;;;;8.50;1.77;;;37.90;62.20;;;;;;4972087;28;20648;-73
2022/06/18 12:45:54;;;;;;;2.17;1.93;;;38.20;61.70;;;;;;4970835;28;20652;-72
2022/06/18 12:48:31;;;;;;;8.40;2.60;;;38.60;61.40;;;;;;4975430;28;20609;-73
2022/06/18 12:51:07;;;;;;;4.17;2.33;;;39.10;60.40;;;;;;4973464;28;20624;-74
2022/06/18 12:53:47;;;;;;;5.57;2.20;;;38.70;59.60;;;;;;4973759;28;21264;-74
2022/06/18 12:56:23;;;;;;;8.47;3.03;;;38.90;60.80;;;;;;4974056;28;20723;-75
2022/06/18 12:58:57;;;;;;;12.03;3.50;;;38.80;60.20;;;;;;4974525;28;20648;-74
2022/06/18 13:01:34;;;;;;;8.40;3.03;;;38.60;58.90;;;;;;4975659;28;20712;-73
2022/06/18 13:04:14;;;;;;;5.43;2.27;;;38.70;59.50;;;;;;4971965;28;20621;-75
2022/06/18 13:06:55;;;;;;;9.33;2.50;;;38.40;59.00;;;;;;4975042;28;21135;-72
2022/06/18 13:09:32;;;;;;;7.33;2.60;;;38.10;59.00;;;;;;4974614;28;20760;-72
2022/06/18 13:12:12;;;;;;;6.73;2.53;;;38.40;59.60;;;;;;4973984;28;20747;-76
2022/06/18 13:14:54;;;;;;;8.00;3.10;;;38.60;59.30;;;;;;4972925;28;20636;-76
2022/06/18 13:17:30;;;;;;;7.67;2.70;;;38.70;59.20;;;;;;4974612;28;20679;-73
2022/06/18 13:20:03;;;;;;;13.03;3.13;;;38.50;58.30;;;;;;4975994;28;21279;-75
2022/06/18 13:22:32;;;;;;;6.07;3.00;;;38.70;58.60;;;;;;4974859;28;20677;-75
2022/06/18 13:28:13;;;;;;;6.80;3.13;;;38.80;59.20;;;;;;4973225;28;21351;-74